Time;durP1;ratioP1;P1;durP2;ratioP2;P2;SDS_P1;SDS_P2;PMS_P1;PMS_P2;Temp;Humidity;BMP_temperature;BMP_pressure;BME280_temperature;BME280_humidity;BME280_pressure;Samples;Min_cycle;Max_cycle;Signal;HPM_P1;HPM_P2
2022/11/14 00:00:32;;;;;;;44.60;21.38;;;8.70;99.90;;;;;;4791145;29;20461;-71
2022/11/14 00:03:00;;;;;;;59.42;24.67;;;8.70;99.90;;;;;;4790562;29;20470;-71
2022/11/14 00:05:26;;;;;;;46.85;22.20;;;8.90;99.90;;;;;;4791659;29;20043;-71
2022/11/14 00:07:52;;;;;;;43.83;22.10;;;8.80;99.90;;;;;;4791341;29;20046;-71
2022/11/14 00:10:18;;;;;;;51.25;23.73;;;8.80;99.90;;;;;;4791516;29;20039;-71
2022/11/14 00:12:44;;;;;;;51.00;23.92;;;8.80;99.90;;;;;;4791440;29;20054;-71
2022/11/14 00:15:10;;;;;;;50.25;21.30;;;8.60;99.90;;;;;;4791087;29;20073;-71
2022/11/14 00:17:37;;;;;;;46.78;22.35;;;8.50;99.90;;;;;;4791023;29;20126;-71
2022/11/14 00:20:03;;;;;;;51.22;23.17;;;8.60;99.90;;;;;;4791272;29;20044;-72
2022/11/14 00:22:29;;;;;;;50.78;24.23;;;8.80;99.90;;;;;;4790857;29;20063;-71
2022/11/14 00:24:55;;;;;;;47.20;22.65;;;8.90;99.90;;;;;;4791226;29;20047;-71
2022/11/14 00:27:20;;;;;;;48.30;24.33;;;8.90;99.90;;;;;;4791223;29;20130;-70
2022/11/14 00:29:46;;;;;;;52.97;24.40;;;8.90;99.90;;;;;;4791039;30;20047;-71
2022/11/14 00:32:12;;;;;;;53.42;25.02;;;8.80;99.90;;;;;;4791105;29;20039;-72
2022/11/14 00:34:37;;;;;;;57.45;26.23;;;8.80;99.90;;;;;;4791030;30;20049;-71
2022/11/14 00:37:03;;;;;;;47.42;23.30;;;8.80;99.90;;;;;;4791123;30;20130;-71
2022/11/14 00:39:29;;;;;;;55.45;23.73;;;8.80;99.90;;;;;;4775406;30;20373;-71
2022/11/14 00:41:54;;;;;;;50.63;24.15;;;9.00;99.90;;;;;;4791192;30;20482;-71
2022/11/14 00:44:20;;;;;;;55.08;25.55;;;8.80;99.90;;;;;;4790833;29;20066;-72
2022/11/14 00:46:46;;;;;;;54.17;26.15;;;8.60;99.90;;;;;;4790743;29;20371;-71
2022/11/14 00:49:11;;;;;;;51.20;25.70;;;8.50;99.90;;;;;;4791247;30;20069;-71
2022/11/14 00:51:37;;;;;;;60.17;27.05;;;8.50;99.90;;;;;;4790853;29;20473;-71
2022/11/14 00:54:03;;;;;;;51.65;25.48;;;8.60;99.90;;;;;;4790043;30;20058;-71
2022/11/14 00:56:29;;;;;;;64.28;30.52;;;8.60;99.90;;;;;;4790762;29;20082;-71
2022/11/14 00:58:54;;;;;;;63.63;29.30;;;8.70;99.90;;;;;;4790949;30;20127;-73
2022/11/14 01:01:20;;;;;;;66.75;29.20;;;8.60;99.90;;;;;;4789747;30;20104;-71
2022/11/14 01:03:48;;;;;;;57.88;28.13;;;8.60;99.90;;;;;;4790583;29;20056;-71
2022/11/14 01:06:14;;;;;;;66.25;30.92;;;8.60;99.90;;;;;;4791095;30;20086;-71
2022/11/14 01:08:40;;;;;;;62.03;29.92;;;8.70;99.90;;;;;;4790647;29;20055;-71
2022/11/14 01:11:16;;;;;;;70.40;30.77;;;8.90;99.90;;;;;;4790738;29;20047;-71
2022/11/14 01:13:43;;;;;;;71.70;31.60;;;8.90;99.90;;;;;;4792436;29;20048;-71
2022/11/14 01:16:09;;;;;;;71.90;33.15;;;8.90;99.90;;;;;;4792985;30;20055;-71
2022/11/14 01:18:36;;;;;;;73.90;34.58;;;8.80;99.90;;;;;;4793994;30;20059;-71
2022/11/14 01:21:07;;;;;;;67.28;32.97;;;8.90;99.90;;;;;;4794136;29;20047;-71
2022/11/14 01:23:33;;;;;;;69.47;33.85;;;9.00;99.90;;;;;;4793812;29;20063;-71
2022/11/14 01:26:04;;;;;;;63.88;31.40;;;9.00;99.90;;;;;;4794062;29;20051;-71
2022/11/14 01:28:30;;;;;;;77.47;35.22;;;9.00;99.90;;;;;;4794070;29;20055;-71
2022/11/14 01:31:05;;;;;;;73.43;33.50;;;9.00;99.90;;;;;;4793768;30;20043;-71
2022/11/14 01:33:31;;;;;;;77.10;34.83;;;9.10;99.90;;;;;;4793113;30;20054;-71
2022/11/14 01:35:59;;;;;;;73.40;34.30;;;9.20;99.90;;;;;;4793658;29;20051;-71
2022/11/14 01:38:24;;;;;;;72.90;32.88;;;9.30;99.90;;;;;;4793654;29;20043;-71
2022/11/14 01:40:50;;;;;;;78.50;35.95;;;9.10;99.90;;;;;;4792982;30;20051;-71
2022/11/14 01:43:16;;;;;;;72.15;34.13;;;9.00;99.90;;;;;;4793486;30;20055;-71
2022/11/14 01:45:44;;;;;;;73.88;35.58;;;8.90;99.90;;;;;;4792529;30;20134;-71
2022/11/14 01:48:30;;;;;;;85.85;37.80;;;9.00;99.90;;;;;;4793643;30;20109;-71
2022/11/14 01:51:00;;;;;;;76.43;35.83;;;9.00;99.90;;;;;;4774730;29;20509;-71
2022/11/14 01:53:26;;;;;;;77.05;36.30;;;9.00;99.90;;;;;;4793308;30;20139;-71
2022/11/14 01:55:55;;;;;;;72.85;34.65;;;9.00;99.90;;;;;;4793408;30;20126;-71
2022/11/14 01:58:22;;;;;;;82.88;37.78;;;8.90;99.90;;;;;;4793338;29;20158;-71
2022/11/14 02:00:47;;;;;;;93.45;39.50;;;8.90;99.90;;;;;;4793335;29;20043;-71
2022/11/14 02:03:14;;;;;;;76.30;35.78;;;8.90;99.90;;;;;;4793564;29;20052;-71
2022/11/14 02:05:43;;;;;;;89.05;39.45;;;8.90;99.90;;;;;;4793222;29;20078;-72
2022/11/14 02:08:12;;;;;;;83.85;36.97;;;9.00;99.90;;;;;;4792494;30;20043;-71
2022/11/14 02:10:37;;;;;;;90.95;39.72;;;9.00;99.90;;;;;;4793400;29;20057;-71
2022/11/14 02:13:03;;;;;;;85.65;37.60;;;9.00;99.90;;;;;;4793251;29;20051;-72
2022/11/14 02:15:29;;;;;;;89.05;39.47;;;9.00;99.90;;;;;;4793058;30;20192;-71
2022/11/14 02:17:55;;;;;;;88.40;38.05;;;9.00;99.90;;;;;;4792614;30;20047;-71
2022/11/14 02:20:27;;;;;;;82.30;38.13;;;8.90;99.90;;;;;;4792974;29;20429;-71
2022/11/14 02:22:53;;;;;;;80.25;37.50;;;8.90;99.90;;;;;;4792860;29;20063;-71
2022/11/14 02:25:19;;;;;;;84.75;37.83;;;8.90;99.90;;;;;;4792384;29;20059;-71
2022/11/14 02:27:45;;;;;;;94.35;40.08;;;8.90;99.90;;;;;;4792872;29;20060;-71
2022/11/14 02:30:18;;;;;;;87.78;37.70;;;8.90;99.90;;;;;;4791859;29;20059;-71
2022/11/14 02:32:44;;;;;;;81.47;36.75;;;9.00;99.90;;;;;;4792990;29;20086;-71
2022/11/14 02:35:10;;;;;;;82.53;37.08;;;9.00;99.90;;;;;;4792546;29;20144;-71
2022/11/14 02:37:36;;;;;;;82.18;38.10;;;9.00;99.90;;;;;;4793007;29;20525;-71
2022/11/14 02:40:02;;;;;;;86.88;38.20;;;9.00;99.90;;;;;;4792589;29;20434;-71
2022/11/14 02:42:28;;;;;;;76.03;35.35;;;9.10;99.90;;;;;;4792612;29;20100;-71
2022/11/14 02:44:53;;;;;;;89.25;39.78;;;9.10;99.90;;;;;;4792433;29;20051;-71
2022/11/14 02:47:19;;;;;;;80.60;36.90;;;9.00;99.90;;;;;;4792395;29;20130;-71
2022/11/14 02:49:45;;;;;;;90.18;38.95;;;8.90;99.90;;;;;;4792493;30;20047;-71
2022/11/14 02:52:10;;;;;;;86.78;38.33;;;8.80;99.90;;;;;;4792588;29;20126;-71
2022/11/14 02:54:36;;;;;;;81.72;37.15;;;8.80;99.90;;;;;;4792265;29;20100;-71
2022/11/14 02:57:02;;;;;;;85.53;38.33;;;8.60;99.90;;;;;;4792282;30;20088;-71
2022/11/14 02:59:27;;;;;;;87.80;38.05;;;8.60;99.90;;;;;;4791458;30;20051;-71
2022/11/14 03:01:53;;;;;;;87.65;38.58;;;8.50;99.90;;;;;;4791252;30;20104;-71
2022/11/14 03:04:19;;;;;;;97.63;40.75;;;8.50;99.90;;;;;;4791185;30;20051;-71
2022/11/14 03:06:44;;;;;;;85.45;37.75;;;8.60;99.90;;;;;;4792259;30;20126;-71
2022/11/14 03:09:10;;;;;;;94.40;39.60;;;8.60;99.90;;;;;;4792360;29;20155;-71
2022/11/14 03:11:35;;;;;;;92.50;38.72;;;8.70;99.90;;;;;;4792027;30;20058;-71
2022/11/14 03:14:01;;;;;;;94.90;39.60;;;8.60;99.90;;;;;;4792175;29;20082;-71
2022/11/14 03:16:27;;;;;;;87.72;37.80;;;8.70;99.90;;;;;;4791816;30;20051;-71
2022/11/14 03:18:52;;;;;;;100.43;40.67;;;8.90;99.90;;;;;;4791795;29;20043;-71
2022/11/14 03:21:19;;;;;;;94.70;41.22;;;8.80;99.90;;;;;;4792055;29;20295;-71
2022/11/14 03:23:46;;;;;;;98.65;40.55;;;8.90;99.90;;;;;;4791637;29;20101;-71
2022/11/14 03:26:13;;;;;;;85.72;38.03;;;8.80;99.90;;;;;;4792135;29;20115;-71
2022/11/14 03:28:40;;;;;;;94.20;41.30;;;8.80;99.90;;;;;;4792034;29;20184;-71
2022/11/14 03:31:06;;;;;;;94.82;40.67;;;8.90;99.90;;;;;;4792090;29;20054;-71
2022/11/14 03:33:34;;;;;;;87.47;38.40;;;8.70;99.90;;;;;;4791701;30;20051;-72
2022/11/14 03:35:59;;;;;;;83.38;38.25;;;8.70;99.90;;;;;;4791685;29;20126;-71
2022/11/14 03:38:25;;;;;;;89.47;40.85;;;8.60;99.90;;;;;;4791799;30;20442;-71
2022/11/14 03:40:51;;;;;;;81.75;37.15;;;8.70;99.90;;;;;;4790439;30;20094;-71
2022/11/14 03:43:18;;;;;;;88.47;38.17;;;8.70;99.90;;;;;;4791431;29;20043;-70
2022/11/14 03:45:45;;;;;;;79.07;35.75;;;8.50;99.90;;;;;;4791663;29;20460;-70
2022/11/14 03:48:11;;;;;;;80.82;38.17;;;8.60;99.90;;;;;;4791141;29;20047;-71
2022/11/14 03:50:37;;;;;;;76.30;34.95;;;8.60;99.90;;;;;;4791318;29;20086;-71
2022/11/14 03:53:03;;;;;;;82.38;36.15;;;8.60;99.90;;;;;;4791427;29;20082;-71
2022/11/14 03:55:28;;;;;;;76.18;36.28;;;8.60;99.90;;;;;;4791431;29;20054;-71
2022/11/14 03:57:54;;;;;;;69.47;33.53;;;8.70;99.90;;;;;;4790590;30;20311;-71
2022/11/14 04:00:20;;;;;;;74.82;35.67;;;8.60;99.90;;;;;;4791557;30;20074;-70
2022/11/14 04:02:46;;;;;;;75.80;35.00;;;8.70;99.90;;;;;;4790334;30;20058;-71
2022/11/14 04:05:12;;;;;;;78.05;35.75;;;8.70;99.90;;;;;;4790568;30;20051;-71
2022/11/14 04:07:39;;;;;;;69.57;33.00;;;8.70;99.90;;;;;;4791415;29;20039;-71
2022/11/14 04:10:05;;;;;;;72.45;35.88;;;8.80;99.90;;;;;;4790276;30;20357;-71
2022/11/14 04:12:31;;;;;;;71.70;34.47;;;8.90;99.90;;;;;;4791336;29;20048;-71
2022/11/14 04:14:57;;;;;;;78.70;35.80;;;8.90;99.90;;;;;;4790181;30;20055;-71
2022/11/14 04:17:22;;;;;;;81.85;37.22;;;9.00;99.90;;;;;;4790675;30;20043;-71
2022/11/14 04:19:49;;;;;;;67.60;33.13;;;8.90;99.90;;;;;;4791425;29;20047;-71
2022/11/14 04:22:15;;;;;;;70.93;33.72;;;8.90;99.90;;;;;;4790917;29;20055;-70
2022/11/14 04:24:41;;;;;;;70.45;34.08;;;8.90;99.90;;;;;;4790411;30;20120;-71
2022/11/14 04:27:06;;;;;;;70.72;33.35;;;9.00;99.90;;;;;;4791448;29;20043;-71
2022/11/14 04:29:32;;;;;;;68.80;32.55;;;9.00;99.90;;;;;;4791143;30;20051;-71
2022/11/14 04:31:58;;;;;;;71.85;33.90;;;8.90;99.90;;;;;;4790432;30;20051;-71
2022/11/14 04:34:23;;;;;;;71.50;34.20;;;8.80;99.90;;;;;;4790332;30;20054;-71
2022/11/14 04:36:50;;;;;;;69.95;33.08;;;8.80;99.90;;;;;;4791240;29;20185;-71
2022/11/14 04:39:17;;;;;;;68.63;31.83;;;8.90;99.90;;;;;;4791076;29;20050;-71
2022/11/14 04:41:42;;;;;;;66.75;31.92;;;8.90;99.90;;;;;;4788069;30;20050;-71
2022/11/14 04:44:08;;;;;;;70.05;32.97;;;8.60;99.90;;;;;;4789681;29;20039;-71
2022/11/14 04:46:39;;;;;;;74.50;33.75;;;8.50;99.90;;;;;;4790342;29;20104;-71
2022/11/14 04:49:04;;;;;;;70.18;33.15;;;8.50;99.90;;;;;;4793433;29;20433;-71
2022/11/14 04:51:30;;;;;;;70.45;33.70;;;8.70;99.90;;;;;;4794406;29;20047;-71
2022/11/14 04:53:56;;;;;;;65.47;32.58;;;8.80;99.90;;;;;;4794736;29;20052;-71
2022/11/14 04:56:22;;;;;;;70.60;31.50;;;8.80;99.90;;;;;;4794330;29;20051;-71
2022/11/14 04:58:48;;;;;;;74.80;34.88;;;8.90;99.90;;;;;;4794581;29;20104;-71
2022/11/14 05:01:14;;;;;;;66.13;33.00;;;9.00;99.90;;;;;;4794261;29;20122;-72
2022/11/14 05:03:40;;;;;;;67.97;33.35;;;8.80;99.90;;;;;;4794383;29;20122;-71
2022/11/14 05:06:06;;;;;;;74.25;34.13;;;8.70;99.90;;;;;;4793224;30;20062;-71
2022/11/14 05:08:31;;;;;;;66.65;32.47;;;8.70;99.90;;;;;;4793414;30;20055;-71
2022/11/14 05:10:57;;;;;;;66.03;32.30;;;8.70;99.90;;;;;;4794187;29;20050;-71
2022/11/14 05:13:23;;;;;;;74.25;35.83;;;8.70;99.90;;;;;;4794296;29;20051;-72
2022/11/14 05:15:48;;;;;;;68.63;31.83;;;8.60;99.90;;;;;;4793967;29;20061;-71
2022/11/14 05:18:14;;;;;;;64.05;32.20;;;8.60;99.90;;;;;;4792666;30;20051;-72
2022/11/14 05:20:40;;;;;;;73.78;34.63;;;8.50;99.90;;;;;;4794026;29;20085;-71
2022/11/14 05:23:05;;;;;;;64.32;30.88;;;8.70;99.90;;;;;;4792975;30;20087;-71
2022/11/14 05:25:31;;;;;;;70.55;33.10;;;8.60;99.90;;;;;;4793078;30;20126;-71
2022/11/14 05:27:57;;;;;;;68.43;31.23;;;8.60;99.90;;;;;;4793917;29;20051;-71
2022/11/14 05:30:22;;;;;;;69.10;33.03;;;8.60;99.90;;;;;;4793857;29;20036;-71
2022/11/14 05:32:51;;;;;;;71.90;34.22;;;8.80;99.90;;;;;;4793144;30;20050;-71
2022/11/14 05:35:16;;;;;;;69.93;33.55;;;8.70;99.90;;;;;;4793922;29;20358;-71
2022/11/14 05:37:42;;;;;;;73.53;33.88;;;8.80;99.90;;;;;;4793710;29;20055;-71
2022/11/14 05:40:08;;;;;;;73.28;34.40;;;8.90;99.90;;;;;;4792808;30;20126;-72
2022/11/14 05:42:34;;;;;;;71.78;32.85;;;8.90;99.90;;;;;;4793586;29;20444;-71
2022/11/14 05:44:59;;;;;;;78.28;36.95;;;8.80;99.90;;;;;;4793633;29;20055;-71
2022/11/14 05:47:25;;;;;;;87.63;36.75;;;8.80;99.90;;;;;;4792324;30;20131;-71
2022/11/14 05:49:51;;;;;;;75.00;33.25;;;8.80;99.90;;;;;;4793685;29;20422;-71
2022/11/14 05:52:16;;;;;;;74.75;34.83;;;8.80;99.90;;;;;;4793537;29;20104;-71
2022/11/14 05:54:42;;;;;;;81.07;36.00;;;8.90;99.90;;;;;;4793328;29;20047;-71
2022/11/14 05:57:08;;;;;;;69.78;32.83;;;9.10;99.90;;;;;;4793479;29;20082;-71
2022/11/14 05:59:33;;;;;;;70.45;32.70;;;9.10;99.90;;;;;;4792171;29;20085;-72
2022/11/14 06:01:59;;;;;;;71.32;34.53;;;9.10;99.90;;;;;;4793560;29;20043;-71
2022/11/14 06:04:25;;;;;;;77.38;35.67;;;9.00;99.90;;;;;;4793386;29;20055;-71
2022/11/14 06:06:50;;;;;;;66.45;31.13;;;8.80;99.90;;;;;;4792386;30;20052;-71
2022/11/14 06:09:16;;;;;;;76.75;36.70;;;8.60;99.90;;;;;;4793187;29;20043;-71
2022/11/14 06:11:41;;;;;;;74.93;33.97;;;8.50;99.90;;;;;;4793167;29;20134;-71
2022/11/14 06:14:07;;;;;;;71.70;32.80;;;8.40;99.90;;;;;;4793024;29;20082;-71
2022/11/14 06:16:33;;;;;;;75.10;32.90;;;8.30;99.90;;;;;;4791631;30;20047;-71
2022/11/14 06:18:58;;;;;;;73.40;33.65;;;8.20;99.90;;;;;;4793333;29;20051;-71
2022/11/14 06:21:25;;;;;;;86.32;36.38;;;8.20;99.90;;;;;;4793026;29;20084;-71
2022/11/14 06:23:51;;;;;;;72.72;32.13;;;8.10;99.90;;;;;;4792858;29;20135;-71
2022/11/14 06:26:29;;;;;;;78.63;34.78;;;8.00;99.90;;;;;;4792918;29;20051;-71
2022/11/14 06:28:55;;;;;;;76.93;33.65;;;8.00;99.90;;;;;;4793042;29;20082;-71
2022/11/14 06:31:22;;;;;;;81.85;35.40;;;8.00;99.90;;;;;;4793099;29;20047;-71
2022/11/14 06:33:49;;;;;;;77.22;32.90;;;8.00;99.90;;;;;;4777164;30;20217;-71
2022/11/14 06:36:15;;;;;;;76.50;33.25;;;8.00;99.90;;;;;;4792887;29;20066;-70
2022/11/14 06:38:42;;;;;;;80.70;34.83;;;8.10;99.90;;;;;;4791725;30;20047;-71
2022/11/14 06:41:13;;;;;;;76.15;34.00;;;8.10;99.90;;;;;;4792618;29;20050;-71
2022/11/14 06:43:40;;;;;;;69.60;32.22;;;8.20;99.90;;;;;;4792615;29;20438;-71
2022/11/14 06:46:08;;;;;;;91.70;37.92;;;8.20;99.90;;;;;;4792363;29;20047;-71
2022/11/14 06:48:34;;;;;;;84.57;35.22;;;8.20;99.90;;;;;;4792613;29;20051;-71
2022/11/14 06:51:01;;;;;;;80.38;34.17;;;8.10;99.90;;;;;;4792456;29;20047;-71
2022/11/14 06:53:29;;;;;;;86.50;36.55;;;8.20;99.90;;;;;;4792533;29;20047;-71
2022/11/14 06:56:00;;;;;;;93.47;37.30;;;8.10;99.90;;;;;;4791429;30;20126;-71
2022/11/14 06:58:34;;;;;;;78.63;34.08;;;8.20;99.90;;;;;;4792600;29;20065;-70
2022/11/14 07:01:10;;;;;;;77.80;32.30;;;8.00;99.90;;;;;;4792251;29;20035;-71
2022/11/14 07:03:36;;;;;;;82.05;34.58;;;8.00;99.90;;;;;;4792473;29;20075;-71
2022/11/14 07:06:04;;;;;;;75.45;32.20;;;8.00;99.90;;;;;;4792107;29;20358;-71
2022/11/14 07:08:30;;;;;;;88.03;36.42;;;7.90;99.90;;;;;;4792380;29;20053;-71
2022/11/14 07:11:10;;;;;;;96.10;35.95;;;7.90;99.90;;;;;;4791841;29;20079;-71
2022/11/14 07:13:37;;;;;;;79.55;34.70;;;7.80;99.90;;;;;;4791318;30;20303;-71
2022/11/14 07:16:03;;;;;;;74.85;32.05;;;7.80;99.90;;;;;;4792262;29;20100;-71
2022/11/14 07:18:30;;;;;;;87.93;36.33;;;7.80;99.90;;;;;;4792070;29;20050;-71
2022/11/14 07:21:01;;;;;;;85.57;34.50;;;8.00;99.90;;;;;;4791901;29;20439;-71
2022/11/14 07:23:28;;;;;;;92.90;36.90;;;8.00;99.90;;;;;;4792008;29;20059;-71
2022/11/14 07:25:54;;;;;;;76.97;33.05;;;7.90;99.90;;;;;;4792043;29;20086;-71
2022/11/14 07:28:20;;;;;;;78.68;32.50;;;7.90;99.90;;;;;;4791880;29;20075;-70
2022/11/14 07:30:46;;;;;;;88.82;35.42;;;7.80;99.90;;;;;;4791674;29;20051;-71
2022/11/14 07:33:11;;;;;;;81.05;32.28;;;7.90;99.90;;;;;;4792064;29;20049;-71
2022/11/14 07:35:41;;;;;;;75.80;32.42;;;7.90;99.90;;;;;;4790722;30;20058;-71
2022/11/14 07:38:06;;;;;;;83.00;33.42;;;8.00;99.90;;;;;;4792061;29;20126;-71
2022/11/14 07:40:32;;;;;;;83.30;35.67;;;8.10;99.90;;;;;;4788953;29;20114;-71
2022/11/14 07:42:59;;;;;;;77.65;33.63;;;8.10;99.90;;;;;;4780883;30;20035;-71
2022/11/14 07:45:26;;;;;;;90.40;36.55;;;8.10;99.90;;;;;;4783282;30;20453;-71
2022/11/14 07:47:56;;;;;;;78.35;33.08;;;8.00;99.90;;;;;;4782945;29;20434;-71
2022/11/14 07:50:22;;;;;;;81.63;35.70;;;8.00;99.90;;;;;;4781787;29;20430;-71
2022/11/14 07:52:54;;;;;;;77.18;32.00;;;8.00;99.90;;;;;;4782761;30;20046;-71
2022/11/14 07:55:21;;;;;;;80.28;33.10;;;8.00;99.90;;;;;;4775443;29;20323;-70
2022/11/14 07:57:51;;;;;;;82.88;34.95;;;8.00;99.90;;;;;;4773691;30;20052;-71
2022/11/14 08:00:16;;;;;;;77.93;32.47;;;7.90;99.90;;;;;;4773793;30;20044;-69
2022/11/14 08:02:42;;;;;;;82.82;33.70;;;7.90;99.90;;;;;;4773397;30;20043;-69
2022/11/14 08:05:08;;;;;;;81.65;32.97;;;7.90;99.90;;;;;;4773779;30;20488;-70
2022/11/14 08:07:33;;;;;;;80.63;33.58;;;8.00;99.90;;;;;;4773494;30;20070;-68
2022/11/14 08:09:59;;;;;;;71.28;31.95;;;7.80;99.90;;;;;;4773579;30;20079;-68
2022/11/14 08:12:25;;;;;;;80.55;35.67;;;7.70;99.90;;;;;;4773493;30;20083;-69
2022/11/14 08:14:50;;;;;;;83.60;34.13;;;7.70;99.90;;;;;;4772400;30;20051;-68
2022/11/14 08:17:16;;;;;;;74.60;32.22;;;7.70;99.90;;;;;;4772111;30;20160;-68
2022/11/14 08:19:42;;;;;;;80.75;33.28;;;7.80;99.90;;;;;;4773344;30;20304;-68
2022/11/14 08:22:07;;;;;;;74.05;32.55;;;7.80;99.90;;;;;;4772849;30;20373;-69
2022/11/14 08:24:33;;;;;;;76.88;33.10;;;7.80;99.90;;;;;;4771589;30;20434;-72
2022/11/14 08:26:58;;;;;;;79.22;33.05;;;8.00;99.90;;;;;;4777380;30;20050;-72
2022/11/14 08:29:24;;;;;;;75.93;32.83;;;8.10;99.90;;;;;;4786569;30;20039;-67
2022/11/14 08:31:50;;;;;;;71.35;31.90;;;8.10;99.90;;;;;;4766033;30;20058;-68
2022/11/14 08:34:16;;;;;;;74.00;32.67;;;8.20;99.90;;;;;;4790966;29;20051;-68
2022/11/14 08:36:41;;;;;;;79.40;34.65;;;8.40;99.90;;;;;;4790835;29;20066;-68
2022/11/14 08:39:07;;;;;;;81.18;35.13;;;8.50;99.90;;;;;;4786139;29;20327;-69
2022/11/14 08:41:33;;;;;;;73.35;32.85;;;8.50;99.90;;;;;;4771983;30;20039;-68
2022/11/14 08:43:58;;;;;;;74.00;33.63;;;8.40;99.90;;;;;;4772458;30;20144;-69
2022/11/14 08:46:24;;;;;;;77.68;33.53;;;8.50;99.90;;;;;;4786502;30;20048;-69
2022/11/14 08:48:50;;;;;;;70.70;33.03;;;8.60;99.90;;;;;;4773241;30;20050;-68
2022/11/14 08:51:15;;;;;;;82.47;35.17;;;8.40;99.90;;;;;;4773245;30;20431;-68
2022/11/14 08:53:41;;;;;;;69.15;32.63;;;8.60;99.90;;;;;;4773146;30;20126;-68
2022/11/14 08:56:11;;;;;;;72.22;31.98;;;8.40;99.90;;;;;;4773172;30;20101;-67
2022/11/14 08:58:36;;;;;;;70.55;31.52;;;8.30;99.90;;;;;;4773021;30;20089;-68
2022/11/14 09:01:06;;;;;;;78.75;33.70;;;8.20;99.90;;;;;;4773188;30;20048;-68
2022/11/14 09:03:32;;;;;;;72.65;33.20;;;8.30;99.90;;;;;;4773109;30;20047;-68
2022/11/14 09:05:58;;;;;;;76.85;33.25;;;8.40;99.90;;;;;;4773203;30;20082;-68
2022/11/14 09:08:24;;;;;;;73.00;32.35;;;8.40;99.90;;;;;;4772986;30;20044;-68
2022/11/14 09:10:50;;;;;;;78.80;32.65;;;8.40;99.90;;;;;;4772971;30;20043;-67
2022/11/14 09:13:16;;;;;;;73.03;32.47;;;8.50;99.90;;;;;;4772821;30;20422;-69
2022/11/14 09:15:42;;;;;;;69.38;31.15;;;8.60;99.90;;;;;;4772710;30;20083;-68
2022/11/14 09:18:09;;;;;;;77.95;32.75;;;8.70;99.90;;;;;;4772391;30;20101;-68
2022/11/14 09:20:35;;;;;;;68.95;31.60;;;8.70;99.90;;;;;;4772941;30;20086;-68
2022/11/14 09:23:01;;;;;;;72.13;32.85;;;8.50;99.90;;;;;;4772815;30;20087;-68
2022/11/14 09:25:28;;;;;;;69.97;31.52;;;8.50;99.90;;;;;;4771712;30;20100;-68
2022/11/14 09:27:54;;;;;;;69.90;31.10;;;8.50;99.90;;;;;;4772988;30;20051;-68
2022/11/14 09:30:21;;;;;;;64.40;29.60;;;8.60;99.90;;;;;;4772971;30;20044;-70
2022/11/14 09:32:47;;;;;;;73.43;32.08;;;8.80;99.90;;;;;;4772960;30;20123;-68
2022/11/14 09:35:13;;;;;;;71.40;31.98;;;9.00;99.90;;;;;;4774138;30;20044;-68
2022/11/14 09:37:39;;;;;;;70.57;31.15;;;8.90;99.90;;;;;;4774843;30;20051;-68
2022/11/14 09:40:06;;;;;;;70.20;30.77;;;8.90;99.90;;;;;;4775057;30;20050;-68
2022/11/14 09:42:44;;;;;;;70.57;32.00;;;8.90;99.90;;;;;;4775875;30;20051;-68
2022/11/14 09:45:14;;;;;;;72.95;32.00;;;8.90;99.90;;;;;;4774738;30;20051;-68
2022/11/14 09:47:44;;;;;;;75.32;32.35;;;8.90;99.90;;;;;;4775438;30;20048;-68
2022/11/14 09:50:14;;;;;;;67.18;31.10;;;8.60;99.90;;;;;;4775995;30;20071;-68
2022/11/14 09:52:45;;;;;;;71.43;32.22;;;8.70;99.90;;;;;;4775634;30;20105;-69
2022/11/14 09:55:15;;;;;;;64.88;31.25;;;8.60;99.90;;;;;;4775637;30;20055;-68
2022/11/14 09:57:43;;;;;;;66.57;30.92;;;8.40;99.90;;;;;;4775869;30;20048;-68
2022/11/14 10:00:20;;;;;;;71.60;33.40;;;8.50;99.90;;;;;;4775798;30;20062;-68
2022/11/14 10:02:58;;;;;;;65.03;30.73;;;8.70;99.90;;;;;;4775692;30;20052;-68
2022/11/14 10:05:52;;;;;;;65.22;31.38;;;8.70;99.90;;;;;;4775461;30;20043;-68
2022/11/14 10:08:53;;;;;;;61.78;30.20;;;8.90;99.90;;;;;;4775721;30;20054;-68
2022/11/14 10:11:36;;;;;;;58.63;28.40;;;9.20;99.90;;;;;;4775461;30;20083;-68
2022/11/14 10:14:35;;;;;;;74.65;26.20;;;9.30;99.90;;;;;;4775227;30;20047;-76
2022/11/14 10:17:15;;;;;;;60.35;29.45;;;9.40;99.90;;;;;;4775131;30;20052;-68
2022/11/14 10:19:57;;;;;;;54.88;28.45;;;9.50;99.90;;;;;;4774424;30;20126;-75
2022/11/14 10:23:05;;;;;;;57.20;27.98;;;9.50;99.90;;;;;;4774223;30;20170;-68
2022/11/14 10:25:33;;;;;;;55.60;28.52;;;9.80;99.90;;;;;;4784090;30;20048;-68
2022/11/14 10:28:13;;;;;;;67.25;32.65;;;9.90;99.90;;;;;;4774258;30;20076;-68
2022/11/14 10:30:47;;;;;;;56.50;28.60;;;9.90;99.90;;;;;;4773933;30;20083;-77
2022/11/14 10:33:15;;;;;;;57.88;28.70;;;10.00;99.90;;;;;;4775029;30;20060;-76
2022/11/14 10:35:46;;;;;;;53.40;28.25;;;9.90;99.90;;;;;;4759316;30;20101;-72
2022/11/14 10:38:42;;;;;;;57.03;27.30;;;9.70;99.90;;;;;;4773797;30;20055;-73
2022/11/14 10:41:09;;;;;;;59.20;28.50;;;9.50;99.90;;;;;;4772926;30;20059;-70
2022/11/14 10:43:47;;;;;;;56.70;27.55;;;9.80;99.90;;;;;;4774687;30;20044;-69
2022/11/14 10:46:19;;;;;;;54.47;27.98;;;9.60;99.90;;;;;;4774136;30;20043;-70
2022/11/14 10:48:48;;;;;;;60.88;29.88;;;9.40;99.90;;;;;;4774910;30;20043;-70
2022/11/14 10:51:33;;;;;;;57.33;29.00;;;9.30;99.90;;;;;;4774789;30;20048;-70
2022/11/14 10:54:23;;;;;;;64.25;30.25;;;9.20;99.90;;;;;;4774717;30;20097;-70
2022/11/14 10:56:51;;;;;;;56.22;27.48;;;9.20;99.90;;;;;;4774490;30;20123;-70
2022/11/14 10:59:17;;;;;;;59.92;28.85;;;9.10;99.90;;;;;;4774569;30;20096;-69
2022/11/14 11:01:52;;;;;;;54.90;27.77;;;9.10;99.90;;;;;;4788425;30;20039;-75
2022/11/14 11:04:28;;;;;;;62.40;30.83;;;9.00;99.90;;;;;;4773371;30;20043;-69
2022/11/14 11:13:02;;;;;;;62.10;29.13;;;9.40;99.90;;;;;;4774407;30;20070;-69
2022/11/14 11:15:30;;;;;;;59.60;30.67;;;9.40;99.90;;;;;;4774359;30;20443;-69
2022/11/14 11:18:26;;;;;;;62.17;30.00;;;9.30;99.90;;;;;;4787936;30;20048;-70
2022/11/14 11:21:09;;;;;;;61.13;31.00;;;9.40;99.90;;;;;;4774268;30;20043;-70
2022/11/14 11:23:46;;;;;;;62.00;29.67;;;9.60;99.90;;;;;;4774055;30;20116;-70
2022/11/14 11:26:32;;;;;;;64.88;31.00;;;9.80;99.90;;;;;;4774076;30;20062;-74
2022/11/14 11:29:07;;;;;;;58.23;30.27;;;9.90;99.90;;;;;;4774289;30;20104;-70
2022/11/14 11:31:53;;;;;;;54.00;28.40;;;10.20;99.90;;;;;;4774015;30;20453;-70
2022/11/14 11:34:27;;;;;;;58.47;30.27;;;10.30;99.90;;;;;;4773983;30;20477;-70
2022/11/14 11:37:04;;;;;;;56.47;28.40;;;10.40;99.90;;;;;;4772778;30;20450;-77
2022/11/14 11:39:40;;;;;;;55.40;27.98;;;10.20;99.90;;;;;;4772847;30;20120;-77
2022/11/14 11:42:11;;;;;;;54.85;29.85;;;10.30;99.90;;;;;;4773893;30;20077;-81
2022/11/14 11:44:43;;;;;;;56.40;27.83;;;10.60;99.90;;;;;;4772816;30;20048;-77
2022/11/14 11:47:14;;;;;;;51.45;25.63;;;10.50;99.90;;;;;;4772116;30;20056;-73
2022/11/14 11:49:48;;;;;;;45.67;25.33;;;10.00;99.80;;;;;;4787775;30;20063;-75
2022/11/14 11:52:22;;;;;;;49.65;25.75;;;10.20;99.90;;;;;;4772666;30;20101;-75
2022/11/14 11:54:52;;;;;;;48.50;25.90;;;10.00;99.90;;;;;;4772614;30;20515;-77
2022/11/14 11:57:24;;;;;;;46.03;25.45;;;10.00;99.90;;;;;;4772452;30;20434;-74
2022/11/14 11:59:58;;;;;;;49.75;25.20;;;9.90;99.90;;;;;;4772656;30;20044;-74
2022/11/14 12:02:27;;;;;;;44.72;24.88;;;9.90;99.90;;;;;;4773485;30;20340;-70
2022/11/14 12:04:56;;;;;;;50.25;25.73;;;10.30;99.90;;;;;;4772456;30;20055;-69
2022/11/14 12:07:52;;;;;;;45.03;25.48;;;10.80;99.70;;;;;;4773756;30;20043;-69
2022/11/14 12:10:29;;;;;;;45.20;24.80;;;11.10;99.40;;;;;;4773459;30;20087;-69
2022/11/14 12:13:07;;;;;;;45.78;24.77;;;11.40;99.20;;;;;;4773478;30;20054;-70
2022/11/14 12:15:53;;;;;;;44.60;25.10;;;11.70;99.00;;;;;;4773354;30;20457;-70
2022/11/14 12:18:55;;;;;;;45.40;24.90;;;12.00;98.80;;;;;;4772985;30;20055;-69
2022/11/14 12:21:45;;;;;;;44.88;24.40;;;12.10;98.40;;;;;;4772944;30;20077;-71
2022/11/14 12:24:39;;;;;;;43.50;24.13;;;12.20;98.30;;;;;;4771758;30;20470;-73
2022/11/14 12:27:17;;;;;;;42.00;23.42;;;12.50;98.30;;;;;;4773238;30;20054;-69
2022/11/14 12:29:54;;;;;;;40.13;23.05;;;13.00;98.00;;;;;;4774851;30;20431;-72
2022/11/14 12:32:33;;;;;;;41.22;23.92;;;13.60;97.40;;;;;;4779336;29;20048;-70
2022/11/14 12:35:04;;;;;;;43.20;23.92;;;13.60;97.10;;;;;;4789077;30;20047;-70
2022/11/14 12:37:43;;;;;;;43.65;24.70;;;13.70;97.20;;;;;;4789673;30;20051;-71
2022/11/14 12:40:36;;;;;;;41.15;22.55;;;13.80;96.90;;;;;;4788701;29;20051;-70
2022/11/14 12:43:03;;;;;;;43.80;24.08;;;13.90;96.80;;;;;;4771816;30;20068;-70
2022/11/14 12:45:35;;;;;;;38.25;22.70;;;14.20;96.90;;;;;;4778454;30;20062;-72
2022/11/14 12:48:14;;;;;;;35.92;21.55;;;14.50;96.70;;;;;;4790497;29;20323;-74
2022/11/14 12:50:42;;;;;;;36.75;22.13;;;14.60;96.60;;;;;;4789746;30;20054;-74